Track Плужник Леонид

Time Latitude Longitude Accuracy (66% radius in meters) Altitude (meters) Speed (km/hour) Bearing (degrees) Battery (%) GPS flag
09:58:18 53.027051 36.148819 3.2160000801086 240.54150390625 0 0 87 1 delete
09:58:08 53.027051 36.148819 3.2160000801086 240.56103515625 0 0 87 1 delete
09:57:57 53.027051 36.148819 3.2160000801086 240.55065917969 0 0 87 1 delete
09:57:47 53.027051 36.148819 3.2160000801086 240.3994140625 0 0 87 1 delete
09:57:37 53.027051 36.148819 3.2160000801086 240.08276367188 0 0 87 1 delete
09:57:27 53.027051 36.148819 4.2880001068115 237.20568847656 0 0 87 1 delete
09:57:16 53.027051 36.148819 4.2880001068115 240.60705566406 0 0 87 1 delete
09:57:06 53.027051 36.148819 3.2160000801086 240.6103515625 0 0 87 1 delete
09:56:56 53.027051 36.148819 3.2160000801086 240.63555908203 0 0 87 1 delete
09:56:46 53.027051 36.148819 3.2160000801086 240.67230224609 0 0 87 1 delete
09:56:36 53.027051 36.148818 3.2160000801086 240.70874023438 0 0 87 1 delete
09:56:25 53.027052 36.148818 3.2160000801086 240.7138671875 0 0 87 1 delete
09:56:15 53.027052 36.148818 3.2160000801086 240.71685791016 0 0 87 1 delete
09:56:05 53.027052 36.148818 3.2160000801086 240.72155761719 0 0 87 1 delete
09:55:55 53.027052 36.148818 3.2160000801086 240.71838378906 0 0 87 1 delete
09:55:44 53.027052 36.148819 3.2160000801086 240.67340087891 0 0 87 1 delete
09:55:34 53.027054 36.148818 3.2160000801086 240.63677978516 0 0 87 1 delete
09:55:24 53.027062 36.148803 3.2160000801086 240.91052246094 0.37999999523163 188.10000610352 87 1 delete
09:55:17 53.027103 36.148837 3.2160000801086 241.68139648438 0.75999999046326 253.69999694824 87 1 delete
09:55:14 53.027124 36.148911 3.2160000801086 241.91522216797 2.539999961853 236.80000305176 87 1 delete
09:55:12 53.027149 36.148979 3.2160000801086 241.69201660156 3.2699999809265 248.80000305176 87 1 delete
09:55:09 53.027177 36.149128 3.2160000801086 238.92834472656 3.1900000572205 255.30000305176 87 1 delete
09:55:05 53.027193 36.149322 3.2160000801086 238.92254638672 2.8900001049042 269.60000610352 87 1 delete
09:55:04 53.027196 36.149365 3.2160000801086 239.37152099609 2.5999999046326 262.60000610352 87 1 delete
09:54:53 53.027207 36.149503 3.2160000801086 241.09661865234 0 0 87 1 delete
09:54:43 53.027207 36.149504 3.2160000801086 241.08270263672 0 0 87 1 delete
09:54:33 53.027207 36.149505 3.2160000801086 241.01245117188 0 0 87 1 delete
09:54:23 53.027206 36.149505 3.2160000801086 241.03143310547 0 0 87 1 delete
09:54:12 53.027206 36.149506 3.2160000801086 240.92517089844 0 0 87 1 delete
09:54:02 53.027198 36.149505 4.2880001068115 240.61431884766 0 0 87 1 delete
09:53:59 53.027198 36.149502 4.2880001068115 240.96911621094 0.73000001907349 27.10000038147 87 1 delete
09:53:52 53.027149 36.149461 4.2880001068115 240.76110839844 0.87999999523163 14.300000190735 87 1 delete
09:53:42 53.027140 36.149462 3.2160000801086 241.57568359375 0 0 87 1 delete
09:53:31 53.027141 36.149462 3.2160000801086 241.578125 0 0 87 1 delete
09:53:21 53.027140 36.149461 3.2160000801086 241.62066650391 0 0 87 1 delete
09:53:11 53.027140 36.149462 3.2160000801086 241.59765625 0 0 87 1 delete
09:53:01 53.027140 36.149462 3.2160000801086 241.55999755859 0 0 87 1 delete
09:52:50 53.027141 36.149463 3.2160000801086 241.57971191406 0 0 87 1 delete
09:52:40 53.027142 36.149466 3.2160000801086 241.52502441406 0 0 87 1 delete
09:52:30 53.027142 36.149481 3.2160000801086 239.16546630859 0 0 87 1 delete
09:52:24 53.027108 36.149502 5.3600001335144 237.71881103516 0.77999997138977 30.799999237061 87 1 delete
09:52:20 53.027072 36.149491 5.3600001335144 236.71228027344 0.50999999046326 31.299999237061 87 1 delete
09:52:14 53.027022 36.149458 5.3600001335144 232.67291259766 0.93000000715256 19.799999237061 87 1 delete
09:52:09 53.026979 36.149426 5.3600001335144 232.97515869141 0.94999998807907 31.299999237061 87 1 delete
09:51:59 53.026947 36.149379 4.2880001068115 233.54907226562 0 0 87 1 delete
09:51:49 53.026946 36.149380 4.2880001068115 233.41528320312 0 0 87 1 delete
09:51:39 53.026944 36.149380 4.2880001068115 233.27392578125 0 0 87 1 delete
09:51:31 53.026935 36.149385 4.2880001068115 231.76495361328 0 0 87 1 delete
09:51:28 53.026928 36.149372 4.2880001068115 233.11004638672 0 0 87 1 delete
09:51:18 53.026867 36.149386 6.4320001602173 232.72326660156 1.2200000286102 11.60000038147 87 1 delete